sensor_id;sensor_type;location;lat;lon;timestamp;P1;durP1;ratioP1;P2;durP2;ratioP2
21769;SDS011;11046;49.558;8.674;2023-02-20T00:02:58;15.63;;;6.20;;
21769;SDS011;11046;49.558;8.674;2023-02-20T00:05:59;17.43;;;5.50;;
21769;SDS011;11046;49.558;8.674;2023-02-20T00:08:59;13.87;;;5.83;;
21769;SDS011;11046;49.558;8.674;2023-02-20T00:12:00;14.10;;;5.67;;
21769;SDS011;11046;49.558;8.674;2023-02-20T00:15:00;16.40;;;5.67;;
21769;SDS011;11046;49.558;8.674;2023-02-20T00:18:01;19.73;;;5.70;;
21769;SDS011;11046;49.558;8.674;2023-02-20T00:21:02;15.20;;;5.97;;
21769;SDS011;11046;49.558;8.674;2023-02-20T00:24:04;17.63;;;6.00;;
21769;SDS011;11046;49.558;8.674;2023-02-20T00:27:05;16.17;;;6.57;;
21769;SDS011;11046;49.558;8.674;2023-02-20T00:30:06;13.53;;;5.60;;
21769;SDS011;11046;49.558;8.674;2023-02-20T00:33:07;16.33;;;5.33;;
21769;SDS011;11046;49.558;8.674;2023-02-20T00:36:07;11.97;;;5.30;;
21769;SDS011;11046;49.558;8.674;2023-02-20T00:39:17;15.07;;;5.13;;
21769;SDS011;11046;49.558;8.674;2023-02-20T00:42:18;15.97;;;5.33;;
21769;SDS011;11046;49.558;8.674;2023-02-20T00:45:19;17.07;;;5.80;;
21769;SDS011;11046;49.558;8.674;2023-02-20T00:48:20;15.67;;;6.00;;
21769;SDS011;11046;49.558;8.674;2023-02-20T00:51:21;12.73;;;5.10;;
21769;SDS011;11046;49.558;8.674;2023-02-20T00:54:21;16.37;;;5.50;;
21769;SDS011;11046;49.558;8.674;2023-02-20T00:57:22;13.30;;;4.93;;
21769;SDS011;11046;49.558;8.674;2023-02-20T01:00:24;13.47;;;5.00;;
21769;SDS011;11046;49.558;8.674;2023-02-20T01:03:26;15.80;;;5.13;;
21769;SDS011;11046;49.558;8.674;2023-02-20T01:06:27;15.60;;;5.27;;
21769;SDS011;11046;49.558;8.674;2023-02-20T01:09:27;16.00;;;5.43;;
21769;SDS011;11046;49.558;8.674;2023-02-20T01:12:28;13.90;;;5.70;;
21769;SDS011;11046;49.558;8.674;2023-02-20T01:15:29;12.83;;;5.00;;
21769;SDS011;11046;49.558;8.674;2023-02-20T01:18:30;13.37;;;5.17;;
21769;SDS011;11046;49.558;8.674;2023-02-20T01:21:31;16.63;;;5.40;;
21769;SDS011;11046;49.558;8.674;2023-02-20T01:24:32;10.60;;;5.23;;
21769;SDS011;11046;49.558;8.674;2023-02-20T01:27:32;12.43;;;5.50;;
21769;SDS011;11046;49.558;8.674;2023-02-20T01:30:33;10.60;;;5.33;;
21769;SDS011;11046;49.558;8.674;2023-02-20T01:33:33;11.20;;;5.33;;
21769;SDS011;11046;49.558;8.674;2023-02-20T01:36:34;10.00;;;5.00;;
21769;SDS011;11046;49.558;8.674;2023-02-20T01:39:35;13.17;;;4.90;;
21769;SDS011;11046;49.558;8.674;2023-02-20T01:42:36;15.73;;;6.00;;
21769;SDS011;11046;49.558;8.674;2023-02-20T01:45:36;14.00;;;5.40;;
21769;SDS011;11046;49.558;8.674;2023-02-20T01:48:38;13.40;;;5.57;;
21769;SDS011;11046;49.558;8.674;2023-02-20T01:51:41;10.50;;;5.33;;
21769;SDS011;11046;49.558;8.674;2023-02-20T01:54:45;9.47;;;4.90;;
21769;SDS011;11046;49.558;8.674;2023-02-20T01:57:54;13.03;;;5.40;;
21769;SDS011;11046;49.558;8.674;2023-02-20T02:01:01;18.70;;;5.73;;
21769;SDS011;11046;49.558;8.674;2023-02-20T02:04:04;12.33;;;5.03;;
21769;SDS011;11046;49.558;8.674;2023-02-20T02:07:07;10.17;;;5.20;;
21769;SDS011;11046;49.558;8.674;2023-02-20T02:10:09;15.20;;;5.27;;
21769;SDS011;11046;49.558;8.674;2023-02-20T02:13:12;17.10;;;5.30;;
21769;SDS011;11046;49.558;8.674;2023-02-20T02:23:16;15.77;;;5.70;;
21769;SDS011;11046;49.558;8.674;2023-02-20T02:26:34;14.37;;;5.80;;
21769;SDS011;11046;49.558;8.674;2023-02-20T02:37:10;12.27;;;5.47;;
21769;SDS011;11046;49.558;8.674;2023-02-20T02:47:27;11.53;;;5.40;;
21769;SDS011;11046;49.558;8.674;2023-02-20T02:50:35;13.20;;;5.47;;
21769;SDS011;11046;49.558;8.674;2023-02-20T02:53:38;12.57;;;5.40;;
21769;SDS011;11046;49.558;8.674;2023-02-20T02:56:40;10.87;;;5.27;;
21769;SDS011;11046;49.558;8.674;2023-02-20T02:59:44;15.03;;;5.73;;
21769;SDS011;11046;49.558;8.674;2023-02-20T03:02:49;15.60;;;5.50;;
21769;SDS011;11046;49.558;8.674;2023-02-20T03:06:24;15.23;;;5.47;;
21769;SDS011;11046;49.558;8.674;2023-02-20T03:09:37;10.03;;;5.33;;
21769;SDS011;11046;49.558;8.674;2023-02-20T03:12:42;10.07;;;5.20;;
21769;SDS011;11046;49.558;8.674;2023-02-20T03:15:50;13.43;;;5.20;;
21769;SDS011;11046;49.558;8.674;2023-02-20T03:18:54;13.80;;;5.07;;
21769;SDS011;11046;49.558;8.674;2023-02-20T03:22:00;11.67;;;5.23;;
21769;SDS011;11046;49.558;8.674;2023-02-20T03:25:05;13.67;;;5.70;;
21769;SDS011;11046;49.558;8.674;2023-02-20T03:28:30;13.23;;;5.37;;
21769;SDS011;11046;49.558;8.674;2023-02-20T03:31:44;11.90;;;5.40;;
21769;SDS011;11046;49.558;8.674;2023-02-20T03:34:49;17.23;;;5.70;;
21769;SDS011;11046;49.558;8.674;2023-02-20T03:38:11;14.70;;;5.40;;
21769;SDS011;11046;49.558;8.674;2023-02-20T03:41:32;9.53;;;5.37;;
21769;SDS011;11046;49.558;8.674;2023-02-20T03:44:54;13.90;;;5.97;;
21769;SDS011;11046;49.558;8.674;2023-02-20T03:47:58;13.40;;;5.50;;
21769;SDS011;11046;49.558;8.674;2023-02-20T03:51:06;15.43;;;5.23;;
21769;SDS011;11046;49.558;8.674;2023-02-20T03:54:17;15.03;;;5.30;;
21769;SDS011;11046;49.558;8.674;2023-02-20T03:57:22;14.17;;;5.17;;
21769;SDS011;11046;49.558;8.674;2023-02-20T04:00:32;12.83;;;5.70;;
21769;SDS011;11046;49.558;8.674;2023-02-20T04:03:38;14.50;;;5.20;;
21769;SDS011;11046;49.558;8.674;2023-02-20T04:06:43;12.77;;;5.67;;
21769;SDS011;11046;49.558;8.674;2023-02-20T04:09:48;15.50;;;5.97;;
21769;SDS011;11046;49.558;8.674;2023-02-20T04:12:48;18.93;;;5.93;;
21769;SDS011;11046;49.558;8.674;2023-02-20T04:15:52;21.43;;;5.80;;
21769;SDS011;11046;49.558;8.674;2023-02-20T04:18:55;16.10;;;5.73;;
21769;SDS011;11046;49.558;8.674;2023-02-20T04:21:58;18.27;;;6.40;;
21769;SDS011;11046;49.558;8.674;2023-02-20T04:28:42;15.43;;;6.57;;
21769;SDS011;11046;49.558;8.674;2023-02-20T04:31:43;19.37;;;7.00;;
21769;SDS011;11046;49.558;8.674;2023-02-20T04:34:46;23.23;;;7.00;;
21769;SDS011;11046;49.558;8.674;2023-02-20T04:37:47;17.20;;;6.37;;
21769;SDS011;11046;49.558;8.674;2023-02-20T04:40:48;18.37;;;7.43;;
21769;SDS011;11046;49.558;8.674;2023-02-20T04:43:50;20.53;;;7.37;;
21769;SDS011;11046;49.558;8.674;2023-02-20T04:47:15;23.60;;;7.87;;
21769;SDS011;11046;49.558;8.674;2023-02-20T04:50:24;15.40;;;6.57;;
21769;SDS011;11046;49.558;8.674;2023-02-20T04:53:29;16.90;;;7.23;;
21769;SDS011;11046;49.558;8.674;2023-02-20T04:56:32;15.27;;;6.30;;
21769;SDS011;11046;49.558;8.674;2023-02-20T04:59:34;13.80;;;6.30;;
21769;SDS011;11046;49.558;8.674;2023-02-20T05:02:36;15.53;;;6.60;;
21769;SDS011;11046;49.558;8.674;2023-02-20T05:05:37;23.57;;;7.37;;
21769;SDS011;11046;49.558;8.674;2023-02-20T05:08:38;18.30;;;7.20;;
21769;SDS011;11046;49.558;8.674;2023-02-20T05:11:38;20.67;;;6.77;;
21769;SDS011;11046;49.558;8.674;2023-02-20T05:14:39;18.00;;;6.70;;
21769;SDS011;11046;49.558;8.674;2023-02-20T05:17:40;16.77;;;6.90;;
21769;SDS011;11046;49.558;8.674;2023-02-20T05:20:40;19.43;;;6.50;;
21769;SDS011;11046;49.558;8.674;2023-02-20T05:23:59;20.03;;;6.90;;
21769;SDS011;11046;49.558;8.674;2023-02-20T05:27:00;15.03;;;6.53;;
21769;SDS011;11046;49.558;8.674;2023-02-20T05:30:01;19.17;;;7.07;;
21769;SDS011;11046;49.558;8.674;2023-02-20T05:33:02;14.33;;;6.37;;
21769;SDS011;11046;49.558;8.674;2023-02-20T05:36:03;16.13;;;6.70;;
21769;SDS011;11046;49.558;8.674;2023-02-20T05:39:04;13.53;;;6.43;;
21769;SDS011;11046;49.558;8.674;2023-02-20T05:42:05;16.97;;;7.07;;
21769;SDS011;11046;49.558;8.674;2023-02-20T05:45:06;18.23;;;6.97;;
21769;SDS011;11046;49.558;8.674;2023-02-20T05:48:08;17.23;;;7.07;;
21769;SDS011;11046;49.558;8.674;2023-02-20T05:51:18;18.27;;;6.83;;
21769;SDS011;11046;49.558;8.674;2023-02-20T05:54:23;15.50;;;6.53;;
21769;SDS011;11046;49.558;8.674;2023-02-20T05:57:24;18.47;;;7.40;;
21769;SDS011;11046;49.558;8.674;2023-02-20T06:00:24;17.57;;;7.03;;
21769;SDS011;11046;49.558;8.674;2023-02-20T06:03:25;19.57;;;6.70;;
21769;SDS011;11046;49.558;8.674;2023-02-20T06:06:35;19.93;;;6.80;;
21769;SDS011;11046;49.558;8.674;2023-02-20T06:09:42;13.40;;;6.13;;
21769;SDS011;11046;49.558;8.674;2023-02-20T06:12:43;19.07;;;7.37;;
21769;SDS011;11046;49.558;8.674;2023-02-20T06:15:43;15.70;;;6.23;;
21769;SDS011;11046;49.558;8.674;2023-02-20T06:18:44;12.60;;;6.10;;
21769;SDS011;11046;49.558;8.674;2023-02-20T06:21:45;17.80;;;6.83;;
21769;SDS011;11046;49.558;8.674;2023-02-20T06:24:46;17.07;;;6.70;;
21769;SDS011;11046;49.558;8.674;2023-02-20T06:27:47;17.17;;;6.57;;
21769;SDS011;11046;49.558;8.674;2023-02-20T06:30:47;20.10;;;7.23;;
21769;SDS011;11046;49.558;8.674;2023-02-20T06:33:48;20.67;;;6.73;;
21769;SDS011;11046;49.558;8.674;2023-02-20T06:36:48;14.63;;;6.67;;
21769;SDS011;11046;49.558;8.674;2023-02-20T06:39:49;16.60;;;6.60;;
21769;SDS011;11046;49.558;8.674;2023-02-20T06:42:49;17.03;;;6.90;;
21769;SDS011;11046;49.558;8.674;2023-02-20T06:45:50;14.47;;;6.83;;
21769;SDS011;11046;49.558;8.674;2023-02-20T06:48:54;17.70;;;6.40;;
21769;SDS011;11046;49.558;8.674;2023-02-20T06:51:56;13.13;;;6.00;;
21769;SDS011;11046;49.558;8.674;2023-02-20T06:54:57;15.80;;;6.13;;
21769;SDS011;11046;49.558;8.674;2023-02-20T06:57:58;16.80;;;7.17;;
21769;SDS011;11046;49.558;8.674;2023-02-20T07:00:58;16.23;;;6.70;;
21769;SDS011;11046;49.558;8.674;2023-02-20T07:03:59;14.63;;;6.17;;
21769;SDS011;11046;49.558;8.674;2023-02-20T07:07:01;20.40;;;6.83;;
21769;SDS011;11046;49.558;8.674;2023-02-20T07:10:02;13.57;;;6.30;;
21769;SDS011;11046;49.558;8.674;2023-02-20T07:13:04;16.80;;;6.20;;
21769;SDS011;11046;49.558;8.674;2023-02-20T07:16:05;14.60;;;6.20;;
21769;SDS011;11046;49.558;8.674;2023-02-20T07:19:06;16.53;;;7.10;;
21769;SDS011;11046;49.558;8.674;2023-02-20T07:22:06;18.70;;;6.03;;
21769;SDS011;11046;49.558;8.674;2023-02-20T07:25:07;13.10;;;6.00;;
21769;SDS011;11046;49.558;8.674;2023-02-20T07:28:08;16.40;;;7.07;;
21769;SDS011;11046;49.558;8.674;2023-02-20T07:31:08;16.03;;;7.33;;
21769;SDS011;11046;49.558;8.674;2023-02-20T07:34:09;13.67;;;6.60;;
21769;SDS011;11046;49.558;8.674;2023-02-20T07:37:12;13.93;;;7.30;;
21769;SDS011;11046;49.558;8.674;2023-02-20T07:40:13;18.97;;;7.97;;
21769;SDS011;11046;49.558;8.674;2023-02-20T07:43:14;16.17;;;7.07;;
21769;SDS011;11046;49.558;8.674;2023-02-20T07:46:16;22.67;;;7.10;;
21769;SDS011;11046;49.558;8.674;2023-02-20T07:49:16;22.20;;;7.30;;
21769;SDS011;11046;49.558;8.674;2023-02-20T07:52:17;18.53;;;8.87;;
21769;SDS011;11046;49.558;8.674;2023-02-20T07:55:18;19.03;;;7.93;;
21769;SDS011;11046;49.558;8.674;2023-02-20T07:58:19;17.93;;;7.70;;
21769;SDS011;11046;49.558;8.674;2023-02-20T08:01:19;12.73;;;6.13;;
21769;SDS011;11046;49.558;8.674;2023-02-20T08:04:20;15.40;;;6.67;;
21769;SDS011;11046;49.558;8.674;2023-02-20T08:07:20;18.37;;;6.77;;
21769;SDS011;11046;49.558;8.674;2023-02-20T08:10:22;15.20;;;7.00;;
21769;SDS011;11046;49.558;8.674;2023-02-20T08:13:24;17.47;;;6.67;;
21769;SDS011;11046;49.558;8.674;2023-02-20T08:16:25;16.40;;;7.00;;
21769;SDS011;11046;49.558;8.674;2023-02-20T08:19:26;16.20;;;7.23;;
21769;SDS011;11046;49.558;8.674;2023-02-20T08:22:26;17.43;;;7.70;;
21769;SDS011;11046;49.558;8.674;2023-02-20T08:25:27;19.40;;;8.17;;
21769;SDS011;11046;49.558;8.674;2023-02-20T08:28:27;19.00;;;6.97;;
21769;SDS011;11046;49.558;8.674;2023-02-20T08:31:28;15.73;;;7.60;;
21769;SDS011;11046;49.558;8.674;2023-02-20T08:34:28;16.87;;;7.30;;
21769;SDS011;11046;49.558;8.674;2023-02-20T08:37:29;14.50;;;6.90;;
21769;SDS011;11046;49.558;8.674;2023-02-20T08:40:29;19.00;;;7.67;;
21769;SDS011;11046;49.558;8.674;2023-02-20T08:43:30;16.20;;;7.17;;
21769;SDS011;11046;49.558;8.674;2023-02-20T08:46:30;19.40;;;6.80;;
21769;SDS011;11046;49.558;8.674;2023-02-20T08:49:31;17.20;;;6.07;;
21769;SDS011;11046;49.558;8.674;2023-02-20T08:52:32;19.43;;;7.40;;
21769;SDS011;11046;49.558;8.674;2023-02-20T08:55:32;21.07;;;7.07;;
21769;SDS011;11046;49.558;8.674;2023-02-20T08:58:33;16.67;;;7.40;;
21769;SDS011;11046;49.558;8.674;2023-02-20T09:01:33;19.57;;;7.60;;
21769;SDS011;11046;49.558;8.674;2023-02-20T09:04:34;16.33;;;7.30;;
21769;SDS011;11046;49.558;8.674;2023-02-20T09:07:34;16.20;;;7.50;;
21769;SDS011;11046;49.558;8.674;2023-02-20T09:10:35;16.67;;;7.47;;
21769;SDS011;11046;49.558;8.674;2023-02-20T09:13:40;17.13;;;7.37;;
21769;SDS011;11046;49.558;8.674;2023-02-20T09:16:42;13.63;;;6.60;;
21769;SDS011;11046;49.558;8.674;2023-02-20T09:19:43;16.23;;;6.43;;
21769;SDS011;11046;49.558;8.674;2023-02-20T09:22:43;19.10;;;7.13;;
21769;SDS011;11046;49.558;8.674;2023-02-20T09:25:44;16.07;;;7.90;;
21769;SDS011;11046;49.558;8.674;2023-02-20T09:28:45;18.10;;;6.87;;
21769;SDS011;11046;49.558;8.674;2023-02-20T09:31:45;19.63;;;7.27;;
21769;SDS011;11046;49.558;8.674;2023-02-20T09:34:46;20.33;;;7.93;;
21769;SDS011;11046;49.558;8.674;2023-02-20T09:37:46;15.87;;;6.87;;
21769;SDS011;11046;49.558;8.674;2023-02-20T09:40:48;17.80;;;7.07;;
21769;SDS011;11046;49.558;8.674;2023-02-20T09:50:32;14.03;;;7.33;;
21769;SDS011;11046;49.558;8.674;2023-02-20T09:56:53;20.13;;;7.37;;
21769;SDS011;11046;49.558;8.674;2023-02-20T10:00:04;17.23;;;7.10;;
21769;SDS011;11046;49.558;8.674;2023-02-20T10:03:17;19.63;;;7.27;;
21769;SDS011;11046;49.558;8.674;2023-02-20T10:06:27;16.40;;;6.10;;
21769;SDS011;11046;49.558;8.674;2023-02-20T10:09:32;12.20;;;5.73;;
21769;SDS011;11046;49.558;8.674;2023-02-20T10:19:33;13.97;;;5.83;;
21769;SDS011;11046;49.558;8.674;2023-02-20T10:26:13;12.27;;;5.95;;
21769;SDS011;11046;49.558;8.674;2023-02-20T10:29:23;14.87;;;5.63;;
21769;SDS011;11046;49.558;8.674;2023-02-20T10:35:32;17.40;;;6.15;;
21769;SDS011;11046;49.558;8.674;2023-02-20T10:38:43;15.68;;;6.22;;
21769;SDS011;11046;49.558;8.674;2023-02-20T10:45:00;13.02;;;6.10;;
21769;SDS011;11046;49.558;8.674;2023-02-20T10:48:16;14.43;;;6.55;;
21769;SDS011;11046;49.558;8.674;2023-02-20T10:51:17;13.27;;;6.10;;
21769;SDS011;11046;49.558;8.674;2023-02-20T10:54:38;14.23;;;6.28;;
21769;SDS011;11046;49.558;8.674;2023-02-20T10:57:45;13.35;;;6.13;;
21769;SDS011;11046;49.558;8.674;2023-02-20T11:00:57;17.15;;;6.40;;
21769;SDS011;11046;49.558;8.674;2023-02-20T11:04:18;15.55;;;6.57;;
21769;SDS011;11046;49.558;8.674;2023-02-20T11:07:22;16.45;;;6.05;;
21769;SDS011;11046;49.558;8.674;2023-02-20T11:10:28;14.88;;;5.97;;
21769;SDS011;11046;49.558;8.674;2023-02-20T11:13:30;12.63;;;6.00;;
21769;SDS011;11046;49.558;8.674;2023-02-20T11:16:31;14.80;;;6.68;;
21769;SDS011;11046;49.558;8.674;2023-02-20T11:19:44;16.92;;;6.30;;
21769;SDS011;11046;49.558;8.674;2023-02-20T11:22:48;14.07;;;6.80;;
21769;SDS011;11046;49.558;8.674;2023-02-20T11:25:49;14.15;;;6.80;;
21769;SDS011;11046;49.558;8.674;2023-02-20T11:29:03;12.73;;;6.60;;
21769;SDS011;11046;49.558;8.674;2023-02-20T11:35:21;13.65;;;5.88;;
21769;SDS011;11046;49.558;8.674;2023-02-20T11:38:26;16.13;;;6.75;;
21769;SDS011;11046;49.558;8.674;2023-02-20T11:41:34;14.30;;;6.97;;
21769;SDS011;11046;49.558;8.674;2023-02-20T11:44:38;14.88;;;6.50;;
21769;SDS011;11046;49.558;8.674;2023-02-20T11:47:39;11.57;;;5.63;;
21769;SDS011;11046;49.558;8.674;2023-02-20T11:50:43;17.48;;;5.53;;
21769;SDS011;11046;49.558;8.674;2023-02-20T11:54:00;14.35;;;6.13;;
21769;SDS011;11046;49.558;8.674;2023-02-20T11:57:28;14.98;;;5.55;;
21769;SDS011;11046;49.558;8.674;2023-02-20T12:00:43;13.07;;;6.10;;
21769;SDS011;11046;49.558;8.674;2023-02-20T12:03:49;15.18;;;6.22;;
21769;SDS011;11046;49.558;8.674;2023-02-20T12:06:55;16.67;;;6.10;;
21769;SDS011;11046;49.558;8.674;2023-02-20T12:10:00;13.63;;;6.35;;
21769;SDS011;11046;49.558;8.674;2023-02-20T12:13:15;14.73;;;6.60;;
21769;SDS011;11046;49.558;8.674;2023-02-20T12:19:18;10.45;;;5.80;;
21769;SDS011;11046;49.558;8.674;2023-02-20T12:22:31;17.05;;;6.82;;
21769;SDS011;11046;49.558;8.674;2023-02-20T12:25:46;15.02;;;5.88;;
21769;SDS011;11046;49.558;8.674;2023-02-20T12:32:47;14.15;;;6.10;;
21769;SDS011;11046;49.558;8.674;2023-02-20T12:39:38;14.32;;;5.10;;
21769;SDS011;11046;49.558;8.674;2023-02-20T12:43:13;14.35;;;5.63;;
21769;SDS011;11046;49.558;8.674;2023-02-20T12:46:42;13.27;;;5.35;;
21769;SDS011;11046;49.558;8.674;2023-02-20T12:53:12;14.23;;;5.32;;
21769;SDS011;11046;49.558;8.674;2023-02-20T12:59:32;11.40;;;5.40;;
21769;SDS011;11046;49.558;8.674;2023-02-20T13:02:47;10.40;;;4.80;;
21769;SDS011;11046;49.558;8.674;2023-02-20T13:05:50;14.07;;;5.15;;
21769;SDS011;11046;49.558;8.674;2023-02-20T13:12:11;11.02;;;4.88;;
21769;SDS011;11046;49.558;8.674;2023-02-20T13:18:31;11.18;;;3.50;;
21769;SDS011;11046;49.558;8.674;2023-02-20T13:21:43;9.38;;;3.60;;
21769;SDS011;11046;49.558;8.674;2023-02-20T13:24:46;10.50;;;3.50;;
21769;SDS011;11046;49.558;8.674;2023-02-20T13:27:48;8.82;;;3.40;;
21769;SDS011;11046;49.558;8.674;2023-02-20T13:31:10;8.85;;;3.65;;
21769;SDS011;11046;49.558;8.674;2023-02-20T13:40:41;7.25;;;3.30;;
21769;SDS011;11046;49.558;8.674;2023-02-20T13:43:43;5.93;;;2.85;;
21769;SDS011;11046;49.558;8.674;2023-02-20T13:50:26;10.88;;;3.72;;
21769;SDS011;11046;49.558;8.674;2023-02-20T13:53:28;8.15;;;3.63;;
21769;SDS011;11046;49.558;8.674;2023-02-20T13:56:44;9.15;;;3.60;;
21769;SDS011;11046;49.558;8.674;2023-02-20T13:59:47;6.85;;;3.03;;
21769;SDS011;11046;49.558;8.674;2023-02-20T14:02:50;6.32;;;3.00;;
21769;SDS011;11046;49.558;8.674;2023-02-20T14:06:07;9.23;;;3.13;;
21769;SDS011;11046;49.558;8.674;2023-02-20T14:09:09;12.82;;;3.20;;
21769;SDS011;11046;49.558;8.674;2023-02-20T14:12:15;16.63;;;3.58;;
21769;SDS011;11046;49.558;8.674;2023-02-20T14:15:16;8.95;;;3.13;;
21769;SDS011;11046;49.558;8.674;2023-02-20T14:18:28;9.18;;;3.33;;
21769;SDS011;11046;49.558;8.674;2023-02-20T14:21:31;5.18;;;2.47;;
21769;SDS011;11046;49.558;8.674;2023-02-20T14:24:33;6.65;;;2.90;;
21769;SDS011;11046;49.558;8.674;2023-02-20T14:27:34;8.82;;;2.80;;
21769;SDS011;11046;49.558;8.674;2023-02-20T14:30:34;7.60;;;2.50;;
21769;SDS011;11046;49.558;8.674;2023-02-20T14:33:35;7.63;;;2.88;;
21769;SDS011;11046;49.558;8.674;2023-02-20T14:43:13;8.00;;;3.03;;
21769;SDS011;11046;49.558;8.674;2023-02-20T14:46:28;13.00;;;3.00;;
21769;SDS011;11046;49.558;8.674;2023-02-20T14:49:30;9.27;;;3.50;;
21769;SDS011;11046;49.558;8.674;2023-02-20T14:52:30;7.63;;;3.10;;
21769;SDS011;11046;49.558;8.674;2023-02-20T14:55:31;10.63;;;3.63;;
21769;SDS011;11046;49.558;8.674;2023-02-20T14:58:31;8.52;;;3.45;;
21769;SDS011;11046;49.558;8.674;2023-02-20T15:01:37;9.75;;;4.10;;
21769;SDS011;11046;49.558;8.674;2023-02-20T15:04:50;6.85;;;3.35;;
21769;SDS011;11046;49.558;8.674;2023-02-20T15:07:59;7.93;;;3.38;;
21769;SDS011;11046;49.558;8.674;2023-02-20T15:11:19;10.50;;;3.70;;
21769;SDS011;11046;49.558;8.674;2023-02-20T15:14:21;11.20;;;3.40;;
21769;SDS011;11046;49.558;8.674;2023-02-20T15:17:25;6.15;;;3.03;;
21769;SDS011;11046;49.558;8.674;2023-02-20T15:23:40;8.25;;;3.80;;
21769;SDS011;11046;49.558;8.674;2023-02-20T15:26:42;9.05;;;3.58;;
21769;SDS011;11046;49.558;8.674;2023-02-20T15:29:43;8.55;;;3.75;;
21769;SDS011;11046;49.558;8.674;2023-02-20T15:32:50;8.88;;;3.90;;
21769;SDS011;11046;49.558;8.674;2023-02-20T15:35:51;8.93;;;3.67;;
21769;SDS011;11046;49.558;8.674;2023-02-20T15:38:52;8.82;;;3.10;;
21769;SDS011;11046;49.558;8.674;2023-02-20T15:41:54;12.52;;;3.75;;
21769;SDS011;11046;49.558;8.674;2023-02-20T15:44:54;8.30;;;4.63;;
21769;SDS011;11046;49.558;8.674;2023-02-20T15:47:55;11.77;;;5.30;;
21769;SDS011;11046;49.558;8.674;2023-02-20T15:50:58;17.10;;;5.30;;
21769;SDS011;11046;49.558;8.674;2023-02-20T15:54:00;15.07;;;5.22;;
21769;SDS011;11046;49.558;8.674;2023-02-20T15:57:01;12.88;;;5.80;;
21769;SDS011;11046;49.558;8.674;2023-02-20T16:00:02;9.15;;;4.10;;
21769;SDS011;11046;49.558;8.674;2023-02-20T16:03:05;9.85;;;3.65;;
21769;SDS011;11046;49.558;8.674;2023-02-20T16:06:06;7.82;;;3.90;;
21769;SDS011;11046;49.558;8.674;2023-02-20T16:09:07;8.90;;;3.75;;
21769;SDS011;11046;49.558;8.674;2023-02-20T16:12:26;11.55;;;3.83;;
21769;SDS011;11046;49.558;8.674;2023-02-20T16:15:31;8.85;;;3.55;;
21769;SDS011;11046;49.558;8.674;2023-02-20T16:18:33;11.43;;;3.53;;
21769;SDS011;11046;49.558;8.674;2023-02-20T16:21:38;9.73;;;3.00;;
21769;SDS011;11046;49.558;8.674;2023-02-20T16:24:40;13.73;;;4.07;;
21769;SDS011;11046;49.558;8.674;2023-02-20T16:27:44;13.45;;;4.20;;
21769;SDS011;11046;49.558;8.674;2023-02-20T16:30:48;16.73;;;3.67;;
21769;SDS011;11046;49.558;8.674;2023-02-20T16:33:49;7.72;;;3.67;;
21769;SDS011;11046;49.558;8.674;2023-02-20T16:36:50;12.10;;;3.72;;
21769;SDS011;11046;49.558;8.674;2023-02-20T16:39:52;14.20;;;3.90;;
21769;SDS011;11046;49.558;8.674;2023-02-20T16:42:52;11.27;;;3.67;;
21769;SDS011;11046;49.558;8.674;2023-02-20T16:45:53;9.90;;;3.80;;
21769;SDS011;11046;49.558;8.674;2023-02-20T16:48:54;10.77;;;4.13;;
21769;SDS011;11046;49.558;8.674;2023-02-20T16:51:59;12.77;;;3.85;;
21769;SDS011;11046;49.558;8.674;2023-02-20T16:55:00;10.73;;;3.90;;
21769;SDS011;11046;49.558;8.674;2023-02-20T16:58:03;11.20;;;3.83;;
21769;SDS011;11046;49.558;8.674;2023-02-20T17:01:04;9.70;;;3.95;;
21769;SDS011;11046;49.558;8.674;2023-02-20T17:04:10;13.90;;;4.15;;
21769;SDS011;11046;49.558;8.674;2023-02-20T17:07:16;9.40;;;4.23;;
21769;SDS011;11046;49.558;8.674;2023-02-20T17:10:18;9.37;;;3.77;;
21769;SDS011;11046;49.558;8.674;2023-02-20T17:13:20;10.73;;;4.43;;
21769;SDS011;11046;49.558;8.674;2023-02-20T17:16:22;11.80;;;4.33;;
21769;SDS011;11046;49.558;8.674;2023-02-20T17:19:24;11.47;;;4.20;;
21769;SDS011;11046;49.558;8.674;2023-02-20T17:22:27;9.27;;;4.53;;
21769;SDS011;11046;49.558;8.674;2023-02-20T17:25:30;9.07;;;3.53;;
21769;SDS011;11046;49.558;8.674;2023-02-20T17:28:39;11.80;;;4.37;;
21769;SDS011;11046;49.558;8.674;2023-02-20T17:31:43;13.83;;;4.87;;
21769;SDS011;11046;49.558;8.674;2023-02-20T17:34:48;10.67;;;4.77;;
21769;SDS011;11046;49.558;8.674;2023-02-20T17:37:52;12.97;;;4.57;;
21769;SDS011;11046;49.558;8.674;2023-02-20T17:40:52;10.80;;;4.03;;
21769;SDS011;11046;49.558;8.674;2023-02-20T17:43:56;14.17;;;4.50;;
21769;SDS011;11046;49.558;8.674;2023-02-20T17:46:58;12.33;;;4.93;;
21769;SDS011;11046;49.558;8.674;2023-02-20T17:50:00;10.53;;;4.27;;
21769;SDS011;11046;49.558;8.674;2023-02-20T17:53:04;11.33;;;4.10;;
21769;SDS011;11046;49.558;8.674;2023-02-20T17:56:11;16.13;;;4.43;;
21769;SDS011;11046;49.558;8.674;2023-02-20T17:59:18;11.40;;;4.30;;
21769;SDS011;11046;49.558;8.674;2023-02-20T18:02:23;10.63;;;4.10;;
21769;SDS011;11046;49.558;8.674;2023-02-20T18:05:27;12.47;;;4.13;;
21769;SDS011;11046;49.558;8.674;2023-02-20T18:08:34;10.37;;;4.50;;
21769;SDS011;11046;49.558;8.674;2023-02-20T18:11:41;11.87;;;4.80;;
21769;SDS011;11046;49.558;8.674;2023-02-20T18:14:45;9.83;;;4.20;;
21769;SDS011;11046;49.558;8.674;2023-02-20T18:17:47;10.27;;;4.20;;
21769;SDS011;11046;49.558;8.674;2023-02-20T18:20:52;10.23;;;3.97;;
21769;SDS011;11046;49.558;8.674;2023-02-20T18:23:57;10.97;;;4.20;;
21769;SDS011;11046;49.558;8.674;2023-02-20T18:27:04;13.03;;;4.50;;
21769;SDS011;11046;49.558;8.674;2023-02-20T18:30:07;10.53;;;4.13;;
21769;SDS011;11046;49.558;8.674;2023-02-20T18:33:09;11.23;;;5.00;;
21769;SDS011;11046;49.558;8.674;2023-02-20T18:36:17;8.33;;;4.40;;
21769;SDS011;11046;49.558;8.674;2023-02-20T18:39:22;9.67;;;4.30;;
21769;SDS011;11046;49.558;8.674;2023-02-20T18:42:24;12.53;;;4.27;;
21769;SDS011;11046;49.558;8.674;2023-02-20T18:45:31;10.23;;;4.57;;
21769;SDS011;11046;49.558;8.674;2023-02-20T18:48:40;13.73;;;5.13;;
21769;SDS011;11046;49.558;8.674;2023-02-20T18:51:42;21.83;;;6.13;;
21769;SDS011;11046;49.558;8.674;2023-02-20T18:54:45;12.97;;;4.23;;
21769;SDS011;11046;49.558;8.674;2023-02-20T18:57:47;13.00;;;4.60;;
21769;SDS011;11046;49.558;8.674;2023-02-20T19:00:50;11.87;;;4.47;;
21769;SDS011;11046;49.558;8.674;2023-02-20T19:03:54;8.80;;;3.90;;
21769;SDS011;11046;49.558;8.674;2023-02-20T19:06:57;16.87;;;4.53;;
21769;SDS011;11046;49.558;8.674;2023-02-20T19:09:58;12.67;;;5.27;;
21769;SDS011;11046;49.558;8.674;2023-02-20T19:13:02;14.47;;;4.57;;
21769;SDS011;11046;49.558;8.674;2023-02-20T19:16:07;10.50;;;4.10;;
21769;SDS011;11046;49.558;8.674;2023-02-20T19:19:14;10.10;;;4.10;;
21769;SDS011;11046;49.558;8.674;2023-02-20T19:22:19;13.07;;;3.73;;
21769;SDS011;11046;49.558;8.674;2023-02-20T19:25:23;12.57;;;4.50;;
21769;SDS011;11046;49.558;8.674;2023-02-20T19:28:25;11.57;;;4.60;;
21769;SDS011;11046;49.558;8.674;2023-02-20T19:31:26;10.53;;;5.00;;
21769;SDS011;11046;49.558;8.674;2023-02-20T19:34:27;10.87;;;4.90;;
21769;SDS011;11046;49.558;8.674;2023-02-20T19:37:28;16.43;;;5.73;;
21769;SDS011;11046;49.558;8.674;2023-02-20T19:40:32;13.43;;;5.53;;
21769;SDS011;11046;49.558;8.674;2023-02-20T19:43:34;12.57;;;5.40;;
21769;SDS011;11046;49.558;8.674;2023-02-20T19:46:35;11.60;;;5.10;;
21769;SDS011;11046;49.558;8.674;2023-02-20T19:49:38;14.77;;;4.57;;
21769;SDS011;11046;49.558;8.674;2023-02-20T19:52:44;11.17;;;5.00;;
21769;SDS011;11046;49.558;8.674;2023-02-20T19:55:45;13.00;;;4.80;;